Time;durP1;ratioP1;P1;durP2;ratioP2;P2;SDS_P1;SDS_P2;PMS_P1;PMS_P2;Temp;Humidity;BMP_temperature;BMP_pressure;BME280_temperature;BME280_humidity;BME280_pressure;Samples;Min_cycle;Max_cycle;Signal;HPM_P1;HPM_P2
2023/07/09 00:00:27;;;;;;;6.15;2.20;;;23.00;93.80;;;;;;5134021;27;45395;-72
2023/07/09 00:02:54;;;;;;;2.90;1.83;;;23.00;93.90;;;;;;5134271;27;45532;-72
2023/07/09 00:05:21;;;;;;;2.50;1.85;;;22.90;93.50;;;;;;5125248;27;47924;-73
2023/07/09 00:07:48;;;;;;;2.80;1.90;;;22.90;93.40;;;;;;5142030;27;45980;-72
2023/07/09 00:10:17;;;;;;;2.20;1.77;;;22.90;93.20;;;;;;5142675;27;45426;-73
2023/07/09 00:12:44;;;;;;;2.83;1.70;;;23.00;93.20;;;;;;5145981;27;45676;-72
2023/07/09 00:15:12;;;;;;;3.03;1.70;;;23.00;93.20;;;;;;5142827;27;46093;-72
2023/07/09 00:17:40;;;;;;;2.22;1.60;;;23.00;93.20;;;;;;5145571;27;45355;-72
2023/07/09 00:20:13;;;;;;;2.42;1.83;;;23.00;93.30;;;;;;5138930;27;45403;-72
2023/07/09 00:22:40;;;;;;;2.40;1.77;;;23.00;93.30;;;;;;5147439;27;45272;-72
2023/07/09 00:25:13;;;;;;;1.88;1.52;;;23.00;93.30;;;;;;5145693;27;45443;-72
2023/07/09 00:27:44;;;;;;;2.50;1.85;;;23.00;93.30;;;;;;5136235;27;45973;-72
2023/07/09 00:30:17;;;;;;;3.80;1.65;;;23.00;93.50;;;;;;5124621;27;45313;-72
2023/07/09 00:32:44;;;;;;;1.88;1.50;;;23.00;93.40;;;;;;5134662;27;45238;-72
2023/07/09 00:35:15;;;;;;;2.42;1.90;;;23.00;93.50;;;;;;5144410;27;46583;-73
2023/07/09 00:37:43;;;;;;;2.47;1.85;;;23.00;93.60;;;;;;5135891;27;45348;-73
2023/07/09 00:40:16;;;;;;;2.35;1.55;;;23.00;93.60;;;;;;5134982;27;45459;-72
2023/07/09 00:42:47;;;;;;;3.10;1.88;;;23.00;93.70;;;;;;5141758;27;45262;-72
2023/07/09 00:45:20;;;;;;;2.95;2.03;;;23.00;93.70;;;;;;5137986;27;46652;-72
2023/07/09 00:47:53;;;;;;;2.97;2.05;;;23.00;93.80;;;;;;5143503;27;45352;-72
2023/07/09 00:50:37;;;;;;;2.78;2.00;;;23.00;93.80;;;;;;5138762;27;45496;-72
2023/07/09 00:53:09;;;;;;;2.45;1.73;;;23.00;93.90;;;;;;5140457;27;45293;-72
2023/07/09 00:55:40;;;;;;;2.42;1.73;;;22.90;94.00;;;;;;5141023;27;46264;-72
2023/07/09 00:58:12;;;;;;;2.45;1.70;;;22.90;94.00;;;;;;5134207;27;45428;-72
2023/07/09 01:00:46;;;;;;;3.60;1.95;;;22.90;93.90;;;;;;5144311;27;45385;-72
2023/07/09 01:03:19;;;;;;;2.58;1.75;;;22.90;94.00;;;;;;5143390;27;45207;-72
2023/07/09 01:05:51;;;;;;;2.85;1.92;;;22.90;94.00;;;;;;5145056;27;45307;-72
2023/07/09 01:08:19;;;;;;;3.28;2.15;;;22.90;93.80;;;;;;5145253;27;45497;-72
2023/07/09 01:10:45;;;;;;;2.80;1.98;;;22.90;93.60;;;;;;5127411;27;45256;-72
2023/07/09 01:13:14;;;;;;;2.85;1.92;;;22.90;93.50;;;;;;5143346;27;45428;-71
2023/07/09 01:15:41;;;;;;;2.28;1.80;;;22.90;93.60;;;;;;5132055;27;45362;-71
2023/07/09 01:18:08;;;;;;;2.10;1.48;;;22.90;93.50;;;;;;5141806;27;45344;-71
2023/07/09 01:20:35;;;;;;;3.33;1.98;;;22.90;93.50;;;;;;5140471;27;45529;-71
2023/07/09 01:23:05;;;;;;;2.53;1.70;;;23.00;93.50;;;;;;5143460;27;45505;-72
2023/07/09 01:25:32;;;;;;;2.08;1.58;;;23.00;93.50;;;;;;5135723;27;47331;-71
2023/07/09 01:27:59;;;;;;;1.90;1.50;;;23.00;93.60;;;;;;5144303;27;45303;-71
2023/07/09 01:30:30;;;;;;;2.88;1.75;;;23.00;93.60;;;;;;5143980;27;45338;-71
2023/07/09 01:32:58;;;;;;;3.33;2.00;;;23.00;93.60;;;;;;5142719;27;45463;-72
2023/07/09 01:35:26;;;;;;;3.75;2.15;;;23.00;93.70;;;;;;5134885;27;48084;-72
2023/07/09 01:37:53;;;;;;;2.65;1.90;;;22.90;93.60;;;;;;5135499;27;46251;-71
2023/07/09 01:40:23;;;;;;;2.63;1.80;;;23.00;93.60;;;;;;5135403;27;45459;-72
2023/07/09 01:42:50;;;;;;;2.80;1.90;;;23.00;93.70;;;;;;5133664;27;45350;-71
2023/07/09 01:45:20;;;;;;;2.58;1.77;;;23.00;93.70;;;;;;5144036;27;46891;-71
2023/07/09 01:47:46;;;;;;;3.35;2.10;;;23.00;93.70;;;;;;5135317;27;45409;-71
2023/07/09 01:50:16;;;;;;;3.97;2.22;;;23.00;93.70;;;;;;5138464;27;45303;-71
2023/07/09 01:52:45;;;;;;;3.45;2.58;;;22.90;93.70;;;;;;5135644;27;45452;-71
2023/07/09 01:55:16;;;;;;;3.47;1.90;;;22.90;93.70;;;;;;5144108;27;47484;-71
2023/07/09 01:57:45;;;;;;;3.17;2.28;;;22.90;94.20;;;;;;5134672;27;45282;-72
2023/07/09 02:00:15;;;;;;;3.40;2.58;;;22.90;94.20;;;;;;5127805;27;45411;-71
2023/07/09 02:02:43;;;;;;;2.33;1.60;;;22.90;93.80;;;;;;5146328;27;45427;-71
2023/07/09 02:05:12;;;;;;;2.72;1.83;;;22.90;93.90;;;;;;5136426;27;48059;-72
2023/07/09 02:07:38;;;;;;;2.35;1.70;;;22.90;93.90;;;;;;5143947;27;45506;-73
2023/07/09 02:10:06;;;;;;;3.10;2.05;;;22.90;93.80;;;;;;5139854;27;45504;-71
2023/07/09 02:12:33;;;;;;;3.13;2.20;;;22.90;93.80;;;;;;5139655;27;45587;-71
2023/07/09 02:15:02;;;;;;;2.35;1.98;;;22.90;93.80;;;;;;5143729;27;47996;-71
2023/07/09 02:17:28;;;;;;;3.53;2.25;;;22.90;93.80;;;;;;5144142;27;45388;-71
2023/07/09 02:19:55;;;;;;;4.25;2.38;;;22.90;93.80;;;;;;5143132;27;45254;-71
2023/07/09 02:22:22;;;;;;;2.63;1.70;;;22.90;93.70;;;;;;5146069;27;45271;-71
2023/07/09 02:24:49;;;;;;;3.47;2.15;;;22.90;93.70;;;;;;5137294;27;46077;-71
2023/07/09 02:27:18;;;;;;;2.90;1.83;;;22.90;93.50;;;;;;5147258;27;45574;-71
2023/07/09 02:29:45;;;;;;;2.78;2.03;;;22.90;93.30;;;;;;5146730;27;45355;-72
2023/07/09 02:32:21;;;;;;;3.17;1.65;;;22.90;93.30;;;;;;5147410;27;45582;-70
2023/07/09 02:34:52;;;;;;;2.80;2.10;;;22.90;93.40;;;;;;5146658;27;46412;-71
2023/07/09 02:37:20;;;;;;;3.63;2.40;;;22.90;93.30;;;;;;5140731;27;45678;-70
2023/07/09 02:39:47;;;;;;;2.65;1.95;;;22.90;93.40;;;;;;5143923;27;45239;-71
2023/07/09 02:42:15;;;;;;;2.47;1.90;;;22.90;93.20;;;;;;5133675;27;45265;-71
2023/07/09 02:44:43;;;;;;;1.73;1.63;;;22.90;93.20;;;;;;5136204;27;46245;-71
2023/07/09 02:47:10;;;;;;;3.17;1.75;;;22.90;93.20;;;;;;5138413;27;45407;-71
2023/07/09 02:49:38;;;;;;;2.85;2.00;;;22.90;93.30;;;;;;5137831;27;45330;-71
2023/07/09 02:52:06;;;;;;;2.65;2.03;;;22.90;93.30;;;;;;5128477;27;45408;-71
2023/07/09 02:54:33;;;;;;;2.83;2.15;;;22.90;93.20;;;;;;5142379;27;46556;-71
2023/07/09 02:57:00;;;;;;;3.75;2.15;;;22.90;93.30;;;;;;5138532;27;45695;-70
2023/07/09 02:59:29;;;;;;;3.03;2.10;;;22.90;93.30;;;;;;5139953;27;45442;-71
2023/07/09 03:01:56;;;;;;;3.50;2.05;;;22.90;93.40;;;;;;5135067;27;45313;-71
2023/07/09 03:04:23;;;;;;;5.50;2.85;;;22.90;93.40;;;;;;5145680;27;47373;-72
2023/07/09 03:06:52;;;;;;;2.47;1.90;;;22.90;93.40;;;;;;5144918;27;45339;-70
2023/07/09 03:09:19;;;;;;;3.83;2.50;;;22.90;93.50;;;;;;5141469;27;45350;-71
2023/07/09 03:11:46;;;;;;;3.42;2.28;;;23.00;93.50;;;;;;5134317;27;45571;-71
2023/07/09 03:14:14;;;;;;;3.58;2.60;;;22.90;93.60;;;;;;5143185;27;45296;-70
2023/07/09 03:16:41;;;;;;;2.70;2.08;;;22.90;93.60;;;;;;5146534;27;45317;-70
2023/07/09 03:19:08;;;;;;;2.33;2.05;;;22.90;93.50;;;;;;5137614;27;45375;-70
2023/07/09 03:21:35;;;;;;;2.88;1.63;;;22.90;93.60;;;;;;5145081;27;45555;-70
2023/07/09 03:24:03;;;;;;;3.47;1.98;;;22.90;93.70;;;;;;5136037;27;46420;-72
2023/07/09 03:26:30;;;;;;;3.33;2.45;;;22.90;93.60;;;;;;5146504;27;45313;-71
2023/07/09 03:28:57;;;;;;;8.30;4.00;;;22.90;93.80;;;;;;5136272;27;45473;-71
2023/07/09 03:31:24;;;;;;;5.35;3.80;;;22.90;93.90;;;;;;5145893;27;45492;-71
2023/07/09 03:33:52;;;;;;;3.38;2.30;;;22.80;93.80;;;;;;5136504;27;45349;-71
2023/07/09 03:36:20;;;;;;;3.95;2.10;;;22.90;93.50;;;;;;5136405;27;45436;-71
2023/07/09 03:38:47;;;;;;;2.55;1.83;;;22.90;93.30;;;;;;5137409;27;45431;-70
2023/07/09 03:41:15;;;;;;;3.28;2.05;;;22.90;93.30;;;;;;5147447;27;45321;-71
2023/07/09 03:43:42;;;;;;;2.70;1.80;;;22.90;93.20;;;;;;5138477;27;45293;-70
2023/07/09 03:46:09;;;;;;;3.53;2.22;;;22.90;93.20;;;;;;5147736;27;45664;-70
2023/07/09 03:48:36;;;;;;;2.75;1.85;;;22.90;93.40;;;;;;5153165;27;45417;-72
2023/07/09 03:51:02;;;;;;;3.58;2.20;;;22.90;93.10;;;;;;5133686;27;45499;-70
2023/07/09 03:53:29;;;;;;;3.03;2.33;;;22.90;93.20;;;;;;5139078;27;47285;-70
2023/07/09 03:55:59;;;;;;;2.80;1.98;;;22.90;93.30;;;;;;5137287;27;45293;-71
2023/07/09 03:58:27;;;;;;;3.08;2.20;;;22.90;93.30;;;;;;5145721;27;45326;-70
2023/07/09 04:00:54;;;;;;;2.95;2.22;;;22.90;93.30;;;;;;5135211;27;45630;-71
2023/07/09 04:03:21;;;;;;;2.95;1.98;;;22.90;93.40;;;;;;5139040;27;46553;-70
2023/07/09 04:05:48;;;;;;;2.75;1.90;;;22.90;93.20;;;;;;5146117;27;45350;-71
2023/07/09 04:08:15;;;;;;;3.28;2.40;;;22.90;93.30;;;;;;5129967;27;45653;-70
2023/07/09 04:10:42;;;;;;;3.95;3.30;;;22.90;93.60;;;;;;5145040;27;45560;-70
2023/07/09 04:13:08;;;;;;;6.75;3.47;;;22.90;93.20;;;;;;5142336;27;47627;-70
2023/07/09 04:15:36;;;;;;;4.22;2.78;;;23.00;93.20;;;;;;5136984;27;45387;-70
2023/07/09 04:18:03;;;;;;;7.18;4.00;;;22.90;93.30;;;;;;5144948;27;45431;-70
2023/07/09 04:20:30;;;;;;;7.13;4.53;;;22.90;92.80;;;;;;5136485;27;45403;-70
2023/07/09 04:22:57;;;;;;;5.22;2.95;;;22.80;92.60;;;;;;5137931;27;46556;-75
2023/07/09 04:25:24;;;;;;;6.57;3.30;;;22.80;93.30;;;;;;5149264;27;45935;-76
2023/07/09 04:27:51;;;;;;;3.85;2.92;;;22.80;93.60;;;;;;5149445;27;45166;-78
2023/07/09 04:30:18;;;;;;;7.72;3.83;;;22.80;93.60;;;;;;5143838;27;45304;-74
2023/07/09 04:32:46;;;;;;;3.20;2.30;;;22.80;93.50;;;;;;5134563;27;46278;-72
2023/07/09 04:35:15;;;;;;;6.60;3.25;;;22.80;93.50;;;;;;5144142;27;45335;-72
2023/07/09 04:37:42;;;;;;;3.88;2.92;;;22.90;93.30;;;;;;5145077;27;45343;-73
2023/07/09 04:40:11;;;;;;;2.90;2.40;;;22.90;93.50;;;;;;5135788;27;45521;-72
2023/07/09 04:42:39;;;;;;;4.60;3.03;;;22.90;93.40;;;;;;5143528;27;48443;-72
2023/07/09 04:45:08;;;;;;;4.07;2.40;;;22.90;93.70;;;;;;5144648;27;45211;-71
2023/07/09 04:47:35;;;;;;;4.35;2.22;;;22.90;93.10;;;;;;5136454;27;45370;-72
2023/07/09 04:50:05;;;;;;;4.05;2.70;;;22.90;93.20;;;;;;5144506;27;45513;-71
2023/07/09 04:52:31;;;;;;;3.92;2.58;;;22.90;93.10;;;;;;5144714;27;45437;-71
2023/07/09 04:54:59;;;;;;;3.70;2.33;;;22.90;93.00;;;;;;5138099;27;45355;-71
2023/07/09 04:57:26;;;;;;;6.22;2.47;;;22.90;93.00;;;;;;5147881;27;45448;-71
2023/07/09 04:59:53;;;;;;;2.92;2.28;;;22.90;93.00;;;;;;5146028;27;45467;-70
2023/07/09 05:02:19;;;;;;;3.90;2.53;;;22.90;92.90;;;;;;5146780;27;45364;-71
2023/07/09 05:04:46;;;;;;;4.72;2.60;;;22.90;92.90;;;;;;5144696;27;45437;-70
2023/07/09 05:07:14;;;;;;;3.83;2.38;;;22.90;92.80;;;;;;5144718;27;45306;-71
2023/07/09 05:09:41;;;;;;;3.08;2.20;;;23.00;92.70;;;;;;5135700;27;45413;-70
2023/07/09 05:12:09;;;;;;;5.10;2.90;;;23.00;92.70;;;;;;5136611;27;45402;-70
2023/07/09 05:14:36;;;;;;;4.88;2.78;;;23.00;92.60;;;;;;5144052;27;45284;-70
2023/07/09 05:17:04;;;;;;;4.13;2.67;;;23.00;92.60;;;;;;5132418;27;45433;-70
2023/07/09 05:19:30;;;;;;;8.52;4.15;;;23.00;92.90;;;;;;5149836;27;45463;-70
2023/07/09 05:21:57;;;;;;;5.53;2.80;;;22.90;92.70;;;;;;5146216;27;47493;-70
2023/07/09 05:24:25;;;;;;;6.05;3.00;;;22.90;92.70;;;;;;5142815;27;45475;-76
2023/07/09 05:26:52;;;;;;;6.70;3.58;;;22.90;92.70;;;;;;5148611;27;45290;-76
2023/07/09 05:29:19;;;;;;;4.97;2.97;;;22.90;93.00;;;;;;5147955;27;45366;-74
2023/07/09 05:31:46;;;;;;;4.72;3.30;;;22.90;93.00;;;;;;5145316;27;46573;-73
2023/07/09 05:34:13;;;;;;;8.23;4.32;;;22.90;93.20;;;;;;5144241;27;45436;-73
2023/07/09 05:36:40;;;;;;;7.50;3.63;;;22.90;93.10;;;;;;5136484;27;45422;-72
2023/07/09 05:39:07;;;;;;;9.05;3.92;;;22.90;93.10;;;;;;5126955;27;45600;-72
2023/07/09 05:41:35;;;;;;;4.95;3.10;;;22.90;93.20;;;;;;5136757;27;48848;-71
2023/07/09 05:44:02;;;;;;;7.28;4.07;;;22.90;93.60;;;;;;5140577;27;45367;-71
2023/07/09 05:46:28;;;;;;;5.03;3.10;;;22.90;93.30;;;;;;5123598;27;45333;-71
2023/07/09 05:48:55;;;;;;;4.82;2.88;;;22.90;93.60;;;;;;5132164;27;45439;-70
2023/07/09 05:51:24;;;;;;;6.70;3.58;;;22.90;93.60;;;;;;5131808;27;45376;-70
2023/07/09 05:53:50;;;;;;;5.47;3.00;;;22.90;93.60;;;;;;5141931;27;46109;-70
2023/07/09 05:56:17;;;;;;;4.40;3.10;;;22.90;93.40;;;;;;5135035;27;45413;-70
2023/07/09 05:58:45;;;;;;;6.65;3.88;;;22.90;93.50;;;;;;5134097;27;45287;-70
2023/07/09 06:01:12;;;;;;;4.40;3.03;;;22.90;93.50;;;;;;5132815;27;47604;-70
2023/07/09 06:03:39;;;;;;;8.32;3.88;;;22.90;93.70;;;;;;5147793;27;45308;-70
2023/07/09 06:06:06;;;;;;;4.90;3.20;;;22.90;93.70;;;;;;5147583;27;45274;-71
2023/07/09 06:08:33;;;;;;;5.45;3.03;;;22.90;93.70;;;;;;5148011;27;45572;-70
2023/07/09 06:11:03;;;;;;;4.72;2.90;;;22.90;93.60;;;;;;5141123;27;47283;-70
2023/07/09 06:13:31;;;;;;;7.32;3.17;;;22.90;93.70;;;;;;5147407;27;45409;-70
2023/07/09 06:16:00;;;;;;;5.13;3.83;;;23.00;93.80;;;;;;5147770;27;45386;-71
2023/07/09 06:18:29;;;;;;;9.15;3.78;;;22.90;93.70;;;;;;5146816;27;45475;-70
2023/07/09 06:20:57;;;;;;;3.92;2.85;;;22.90;93.70;;;;;;5144638;27;46478;-70
2023/07/09 06:23:25;;;;;;;3.72;2.65;;;22.90;93.80;;;;;;5135316;27;45295;-70
2023/07/09 06:25:52;;;;;;;6.82;3.38;;;22.90;93.70;;;;;;5145237;27;45292;-70
2023/07/09 06:28:22;;;;;;;5.10;3.08;;;22.90;93.90;;;;;;5138843;27;45416;-71
2023/07/09 06:30:49;;;;;;;5.45;3.83;;;22.90;94.40;;;;;;5146615;27;45462;-71
2023/07/09 06:33:18;;;;;;;4.53;2.78;;;23.00;94.20;;;;;;5138048;27;45302;-70
2023/07/09 06:35:49;;;;;;;5.80;3.80;;;23.00;93.90;;;;;;5138536;27;45313;-69
2023/07/09 06:38:17;;;;;;;3.55;2.40;;;23.00;93.60;;;;;;5147690;27;45528;-70
2023/07/09 06:40:44;;;;;;;5.57;2.78;;;23.00;93.70;;;;;;5139161;27;46121;-71
2023/07/09 06:43:11;;;;;;;4.70;2.80;;;23.00;93.50;;;;;;5135984;27;45360;-70
2023/07/09 06:45:38;;;;;;;5.40;2.70;;;23.00;93.60;;;;;;5147041;27;45296;-70
2023/07/09 06:48:05;;;;;;;2.97;2.42;;;23.00;93.50;;;;;;5147366;27;45454;-69
2023/07/09 06:50:35;;;;;;;3.42;2.50;;;23.00;93.60;;;;;;5146420;27;47273;-69
2023/07/09 06:53:02;;;;;;;3.90;2.63;;;23.00;93.60;;;;;;5146876;27;45324;-70
2023/07/09 06:55:29;;;;;;;5.43;3.05;;;23.10;93.40;;;;;;5140634;27;45430;-70
2023/07/09 06:57:56;;;;;;;3.65;2.45;;;23.10;93.30;;;;;;5136308;27;45445;-70
2023/07/09 07:00:23;;;;;;;3.42;2.35;;;23.10;93.50;;;;;;5141850;27;45310;-70
2023/07/09 07:02:50;;;;;;;3.25;2.50;;;23.10;93.40;;;;;;5135902;27;45640;-70
2023/07/09 07:05:17;;;;;;;4.63;3.00;;;23.10;93.40;;;;;;5147062;27;45520;-70
2023/07/09 07:07:46;;;;;;;7.03;2.72;;;23.10;93.60;;;;;;5146373;27;45205;-70
2023/07/09 07:10:12;;;;;;;3.75;2.47;;;23.10;93.30;;;;;;5146152;27;45294;-70
2023/07/09 07:12:44;;;;;;;4.55;2.47;;;23.10;93.20;;;;;;5140527;27;45710;-70
2023/07/09 07:15:13;;;;;;;3.22;2.10;;;23.10;93.30;;;;;;5141104;27;45385;-70
2023/07/09 07:17:40;;;;;;;4.00;2.50;;;23.10;93.20;;;;;;5146962;27;45305;-70
2023/07/09 07:20:08;;;;;;;3.72;2.72;;;23.10;93.20;;;;;;5146028;27;47687;-70
2023/07/09 07:22:34;;;;;;;3.17;2.25;;;23.10;93.20;;;;;;5137855;27;45400;-70
2023/07/09 07:25:02;;;;;;;4.45;2.45;;;23.10;93.30;;;;;;5137883;27;45437;-70
2023/07/09 07:27:29;;;;;;;4.45;2.50;;;23.10;93.30;;;;;;5146228;27;45539;-70
2023/07/09 07:29:57;;;;;;;3.85;2.13;;;23.10;93.20;;;;;;5145943;27;47660;-71
2023/07/09 07:32:24;;;;;;;2.92;2.20;;;23.10;93.20;;;;;;5146296;27;46224;-70
2023/07/09 07:34:51;;;;;;;3.90;2.50;;;23.10;93.10;;;;;;5145355;27;45264;-69
2023/07/09 07:37:20;;;;;;;3.45;2.30;;;23.10;93.10;;;;;;5146203;27;45448;-70
2023/07/09 07:39:47;;;;;;;3.92;2.42;;;23.10;93.10;;;;;;5135446;27;46262;-70
2023/07/09 07:42:15;;;;;;;2.72;2.10;;;23.10;93.00;;;;;;5137400;27;45257;-70
2023/07/09 07:44:42;;;;;;;3.22;2.40;;;23.10;92.90;;;;;;5137570;27;45393;-70
2023/07/09 07:47:09;;;;;;;3.00;2.30;;;23.10;92.90;;;;;;5146089;27;45405;-70
2023/07/09 07:49:35;;;;;;;3.15;2.08;;;23.10;92.80;;;;;;5143138;27;45351;-70
2023/07/09 07:52:03;;;;;;;3.40;2.28;;;23.10;92.80;;;;;;5143602;27;45264;-69
2023/07/09 07:54:31;;;;;;;3.42;2.35;;;23.20;92.80;;;;;;5125433;27;45279;-70
2023/07/09 07:56:58;;;;;;;3.67;2.35;;;23.10;92.80;;;;;;5143200;27;45831;-70
2023/07/09 07:59:26;;;;;;;2.88;2.17;;;23.10;92.90;;;;;;5130269;27;46310;-70
2023/07/09 08:01:53;;;;;;;3.88;2.38;;;23.10;92.90;;;;;;5136772;27;45418;-70
2023/07/09 08:04:20;;;;;;;3.55;2.40;;;23.10;92.90;;;;;;5137571;27;45385;-70
2023/07/09 08:06:46;;;;;;;2.53;2.03;;;23.10;93.40;;;;;;5137281;27;45363;-69
2023/07/09 08:09:13;;;;;;;3.10;2.28;;;23.10;93.00;;;;;;5125052;27;47280;-69
2023/07/09 08:11:40;;;;;;;3.70;2.35;;;23.10;93.10;;;;;;5141730;27;45338;-70
2023/07/09 08:14:07;;;;;;;3.50;2.05;;;23.10;93.10;;;;;;5131680;27;45369;-70
2023/07/09 08:16:35;;;;;;;3.38;2.30;;;23.10;93.30;;;;;;5135173;27;45253;-70
2023/07/09 08:19:02;;;;;;;3.25;2.30;;;23.10;93.00;;;;;;5140140;27;48086;-70
2023/07/09 08:21:28;;;;;;;5.05;2.10;;;23.10;92.90;;;;;;5130783;27;45663;-70
2023/07/09 08:23:55;;;;;;;2.95;2.03;;;23.10;92.80;;;;;;5134683;27;45394;-70
2023/07/09 08:26:23;;;;;;;2.85;2.10;;;23.20;92.80;;;;;;5145759;27;45562;-70
2023/07/09 08:28:50;;;;;;;3.65;2.50;;;23.10;92.70;;;;;;5145173;27;45337;-70
2023/07/09 08:31:17;;;;;;;2.75;2.20;;;23.20;92.70;;;;;;5136407;27;45300;-70
2023/07/09 08:33:45;;;;;;;3.90;2.17;;;23.10;92.60;;;;;;5128180;27;45414;-69
2023/07/09 08:36:12;;;;;;;2.55;2.00;;;23.10;92.70;;;;;;5128224;27;45563;-69
2023/07/09 08:38:38;;;;;;;2.97;2.10;;;23.10;92.70;;;;;;5137847;27;47531;-70
2023/07/09 08:41:16;;;;;;;2.97;2.25;;;23.10;92.60;;;;;;5139602;27;45378;-69
2023/07/09 08:43:56;;;;;;;2.90;2.20;;;23.20;92.60;;;;;;5141650;27;45444;-69
2023/07/09 08:46:31;;;;;;;2.25;1.90;;;23.20;92.60;;;;;;5138077;27;45439;-70
2023/07/09 08:49:00;;;;;;;3.10;2.00;;;23.20;92.60;;;;;;5144508;27;45325;-70
2023/07/09 08:51:42;;;;;;;2.60;2.10;;;23.20;92.50;;;;;;5139370;27;45317;-70
2023/07/09 08:54:15;;;;;;;2.08;1.83;;;23.20;92.60;;;;;;5145031;27;45346;-70
2023/07/09 08:56:42;;;;;;;4.65;2.25;;;23.20;92.50;;;;;;5145383;27;45296;-70
2023/07/09 08:59:15;;;;;;;2.40;2.10;;;23.20;92.60;;;;;;5143758;27;48355;-70
2023/07/09 09:01:50;;;;;;;2.30;1.90;;;23.20;92.60;;;;;;5136871;27;45389;-69
2023/07/09 09:04:22;;;;;;;2.67;1.80;;;23.10;92.50;;;;;;5131199;27;45324;-70
2023/07/09 09:06:54;;;;;;;3.80;2.17;;;23.10;92.50;;;;;;5141941;27;45425;-70
2023/07/09 09:09:29;;;;;;;2.13;1.80;;;23.10;92.60;;;;;;5144186;27;45284;-70
2023/07/09 09:12:03;;;;;;;3.17;2.00;;;23.10;92.50;;;;;;5144989;27;45291;-70
2023/07/09 09:14:32;;;;;;;2.78;2.25;;;23.10;92.50;;;;;;5134221;27;45220;-69
2023/07/09 09:17:00;;;;;;;3.00;2.20;;;23.10;92.50;;;;;;5133609;27;45600;-70
2023/07/09 09:19:36;;;;;;;2.33;2.00;;;23.10;92.50;;;;;;5143837;27;48070;-70
2023/07/09 09:22:08;;;;;;;4.78;2.33;;;23.10;92.60;;;;;;5135583;27;45456;-70
2023/07/09 09:24:38;;;;;;;2.38;1.90;;;23.10;92.60;;;;;;5144562;27;45331;-70
2023/07/09 09:27:05;;;;;;;4.07;2.00;;;23.10;92.50;;;;;;5147393;27;45567;-69
2023/07/09 09:29:32;;;;;;;6.63;2.70;;;23.10;92.40;;;;;;5137434;27;45557;-70
2023/07/09 09:32:03;;;;;;;3.03;1.98;;;23.10;92.70;;;;;;5142016;27;45472;-70
2023/07/09 09:34:32;;;;;;;2.55;2.10;;;23.10;92.60;;;;;;5143607;27;45367;-70
2023/07/09 09:37:00;;;;;;;2.72;2.10;;;23.10;92.80;;;;;;5145089;27;45217;-70
2023/07/09 09:39:27;;;;;;;3.92;2.60;;;23.10;92.50;;;;;;5143675;27;45289;-70
2023/07/09 09:41:55;;;;;;;2.88;2.28;;;23.10;92.30;;;;;;5134989;27;45437;-69
2023/07/09 09:44:26;;;;;;;2.63;1.80;;;23.20;92.20;;;;;;5135840;27;45360;-70
2023/07/09 09:46:53;;;;;;;4.35;1.90;;;23.10;92.20;;;;;;5144454;27;45277;-70
2023/07/09 09:49:20;;;;;;;3.00;2.03;;;23.10;92.40;;;;;;5143587;27;47229;-69
2023/07/09 09:51:49;;;;;;;3.42;2.05;;;23.10;92.60;;;;;;5144158;27;45257;-70
2023/07/09 09:54:20;;;;;;;2.20;1.88;;;23.10;92.40;;;;;;5144569;27;45320;-69
2023/07/09 09:56:49;;;;;;;3.22;1.85;;;23.10;92.30;;;;;;5144851;27;45311;-70
2023/07/09 09:59:21;;;;;;;2.20;1.90;;;23.10;92.30;;;;;;5135696;27;47809;-69
2023/07/09 10:01:57;;;;;;;3.55;2.20;;;23.20;92.20;;;;;;5144155;27;45274;-70
2023/07/09 10:04:23;;;;;;;2.95;2.20;;;23.10;92.20;;;;;;5144551;27;45405;-70
2023/07/09 10:06:56;;;;;;;2.50;1.88;;;23.20;92.20;;;;;;5142042;27;45512;-70
2023/07/09 10:09:31;;;;;;;2.72;1.98;;;23.20;92.10;;;;;;5143484;27;45330;-69
2023/07/09 10:12:05;;;;;;;4.50;1.80;;;23.20;92.00;;;;;;5144014;27;45477;-71
2023/07/09 10:14:42;;;;;;;2.85;2.03;;;23.20;92.00;;;;;;5124591;27;45372;-69
2023/07/09 10:17:21;;;;;;;3.50;2.10;;;23.20;91.90;;;;;;5145041;27;45204;-69
2023/07/09 10:19:57;;;;;;;2.08;1.73;;;23.20;91.90;;;;;;5143196;27;45325;-70
2023/07/09 10:22:41;;;;;;;2.03;1.67;;;23.20;91.90;;;;;;5136257;27;46148;-70
2023/07/09 10:25:38;;;;;;;2.40;1.83;;;23.20;91.90;;;;;;5143930;27;45321;-70
2023/07/09 10:28:36;;;;;;;2.72;2.15;;;23.20;92.00;;;;;;5135476;27;45207;-70
2023/07/09 10:31:11;;;;;;;2.10;1.60;;;23.20;91.90;;;;;;5126268;27;45334;-69
2023/07/09 10:33:49;;;;;;;3.22;2.10;;;23.20;91.80;;;;;;5134352;27;45761;-71
2023/07/09 10:36:35;;;;;;;2.90;2.25;;;23.20;91.80;;;;;;5135440;27;45470;-70
2023/07/09 10:39:07;;;;;;;2.13;1.92;;;23.20;91.80;;;;;;5134654;27;45302;-69
2023/07/09 10:41:37;;;;;;;3.75;2.08;;;23.20;91.80;;;;;;5139612;27;48012;-70
2023/07/09 10:44:11;;;;;;;2.90;2.00;;;23.20;91.80;;;;;;5146180;27;45325;-69
2023/07/09 10:46:40;;;;;;;3.42;2.05;;;23.20;91.80;;;;;;5147480;27;45474;-70
2023/07/09 10:49:12;;;;;;;3.22;1.90;;;23.20;91.80;;;;;;5146398;27;45309;-70
2023/07/09 10:51:41;;;;;;;2.90;2.13;;;23.20;91.70;;;;;;5147360;27;47169;-70
2023/07/09 10:54:19;;;;;;;2.17;1.60;;;23.20;91.70;;;;;;5144310;27;45719;-70
2023/07/09 10:56:52;;;;;;;2.75;1.63;;;23.20;91.70;;;;;;5143291;27;45360;-70
2023/07/09 10:59:27;;;;;;;2.30;1.75;;;23.20;91.70;;;;;;5138589;27;45472;-70
2023/07/09 11:01:59;;;;;;;2.08;1.73;;;23.20;91.60;;;;;;5129871;27;45361;-70
2023/07/09 11:04:34;;;;;;;2.65;1.95;;;23.20;91.60;;;;;;5147060;27;45417;-70
2023/07/09 11:07:05;;;;;;;2.40;1.80;;;23.20;91.70;;;;;;5142035;27;45336;-70
2023/07/09 11:09:36;;;;;;;2.50;1.90;;;23.20;91.60;;;;;;5140519;27;45327;-69
2023/07/09 11:12:09;;;;;;;2.42;1.70;;;23.20;91.60;;;;;;5145331;27;47178;-69
2023/07/09 11:14:40;;;;;;;2.83;1.80;;;23.20;91.60;;;;;;5146199;27;45672;-71
2023/07/09 11:17:13;;;;;;;2.53;1.63;;;23.20;91.50;;;;;;5144916;27;45461;-72
2023/07/09 11:19:43;;;;;;;1.92;1.60;;;23.20;91.50;;;;;;5146608;27;45630;-72
2023/07/09 11:22:18;;;;;;;2.80;1.85;;;23.30;91.50;;;;;;5143172;27;48232;-72
2023/07/09 11:24:51;;;;;;;2.47;2.03;;;23.20;91.50;;;;;;5142193;27;46504;-72
2023/07/09 11:27:20;;;;;;;2.92;2.08;;;23.20;91.40;;;;;;5129370;27;45246;-74
2023/07/09 11:29:49;;;;;;;3.88;2.00;;;23.30;91.40;;;;;;5129173;27;45128;-75
2023/07/09 11:32:22;;;;;;;3.22;1.77;;;23.20;91.40;;;;;;5141460;27;46653;-73
2023/07/09 11:34:49;;;;;;;2.53;1.65;;;23.20;91.40;;;;;;5141788;27;45549;-73
2023/07/09 11:37:17;;;;;;;2.30;1.95;;;23.20;91.60;;;;;;5137934;27;45472;-72
2023/07/09 11:39:46;;;;;;;4.07;1.70;;;23.20;91.30;;;;;;5136273;27;45322;-71
2023/07/09 11:42:29;;;;;;;2.20;1.95;;;23.30;91.20;;;;;;5145488;27;46443;-70
2023/07/09 11:45:02;;;;;;;3.70;1.50;;;23.30;91.30;;;;;;5143281;27;45264;-70
2023/07/09 11:47:35;;;;;;;2.00;1.52;;;23.30;91.20;;;;;;5145851;27;45404;-70
2023/07/09 11:50:05;;;;;;;1.80;1.55;;;23.30;91.10;;;;;;5146343;27;45305;-70
2023/07/09 11:52:35;;;;;;;2.13;1.58;;;23.30;91.10;;;;;;5137604;27;47009;-70
2023/07/09 11:55:22;;;;;;;2.72;1.88;;;23.30;91.10;;;;;;5149030;27;45346;-70
2023/07/09 11:57:54;;;;;;;3.25;1.92;;;23.30;91.00;;;;;;5146379;27;45395;-71
2023/07/09 12:00:21;;;;;;;1.95;1.50;;;23.30;90.90;;;;;;5134958;27;45328;-70
2023/07/09 12:02:48;;;;;;;2.22;1.75;;;23.30;90.90;;;;;;5146316;27;45259;-70
2023/07/09 12:05:21;;;;;;;2.00;1.67;;;23.30;90.90;;;;;;5137509;27;45398;-70
2023/07/09 12:07:48;;;;;;;2.38;1.58;;;23.30;91.10;;;;;;5137592;27;45482;-70
2023/07/09 12:10:21;;;;;;;1.98;1.50;;;23.20;90.90;;;;;;5145370;27;45426;-70
2023/07/09 12:12:47;;;;;;;1.77;1.60;;;23.30;90.80;;;;;;5144578;27;46106;-70
2023/07/09 12:15:20;;;;;;;1.92;1.55;;;23.30;90.70;;;;;;5144344;27;45236;-69
2023/07/09 12:17:55;;;;;;;3.60;1.98;;;23.30;90.80;;;;;;5144586;27;45345;-69
2023/07/09 12:20:22;;;;;;;1.60;1.20;;;23.30;90.80;;;;;;5136236;27;45378;-70
2023/07/09 12:22:49;;;;;;;2.65;1.70;;;23.30;90.80;;;;;;5143860;27;47531;-70
2023/07/09 12:25:23;;;;;;;2.38;1.80;;;23.30;90.70;;;;;;5145600;27;45705;-69
2023/07/09 12:27:50;;;;;;;2.83;1.80;;;23.30;90.70;;;;;;5145457;27;45431;-70
2023/07/09 12:30:18;;;;;;;1.92;1.50;;;23.20;90.70;;;;;;5145073;27;45538;-69
2023/07/09 12:32:46;;;;;;;2.28;1.70;;;23.20;90.60;;;;;;5145369;27;45302;-69
2023/07/09 12:35:15;;;;;;;2.47;1.50;;;23.20;90.60;;;;;;5145329;27;45424;-73
2023/07/09 12:37:44;;;;;;;3.42;2.08;;;23.20;90.50;;;;;;5149255;27;45114;-75
2023/07/09 12:40:17;;;;;;;1.45;1.23;;;23.20;90.60;;;;;;5145625;27;45224;-75
2023/07/09 12:42:44;;;;;;;2.80;1.95;;;23.20;90.40;;;;;;5133278;27;47388;-74
2023/07/09 12:45:19;;;;;;;3.15;1.55;;;23.30;90.40;;;;;;5141879;27;45627;-73
2023/07/09 12:47:47;;;;;;;2.10;1.60;;;23.20;90.30;;;;;;5141372;27;45616;-72
2023/07/09 12:50:29;;;;;;;3.35;1.80;;;23.30;90.20;;;;;;5147142;27;45300;-74
2023/07/09 12:52:57;;;;;;;2.50;1.48;;;23.30;90.50;;;;;;5148979;27;47164;-75
2023/07/09 12:55:26;;;;;;;2.03;1.65;;;23.30;90.00;;;;;;5144256;27;46009;-74
2023/07/09 12:57:56;;;;;;;1.75;1.48;;;23.30;89.90;;;;;;5145533;27;45244;-74